Time;durP1;ratioP1;P1;durP2;ratioP2;P2;SDS_P1;SDS_P2;PMS_P1;PMS_P2;Temp;Humidity;BMP_temperature;BMP_pressure;BME280_temperature;BME280_humidity;BME280_pressure;Samples;Min_cycle;Max_cycle;Signal;HPM_P1;HPM_P2
2021/11/07 00:06:37;;;;;;;10.30;5.95;;;8.60;99.90;;;;;;5017246;28;20137;-68
2021/11/07 00:09:16;;;;;;;13.68;6.75;;;9.10;99.90;;;;;;5063913;28;20119;-68
2021/11/07 00:11:43;;;;;;;5.85;5.20;;;8.20;99.90;;;;;;5079681;28;20420;-68
2021/11/07 00:14:10;;;;;;;6.65;6.03;;;8.70;99.90;;;;;;5079312;28;20044;-68
2021/11/07 00:16:38;;;;;;;8.85;5.65;;;8.70;99.90;;;;;;5079051;28;20029;-68
2021/11/07 00:19:10;;;;;;;8.25;6.22;;;8.40;99.90;;;;;;5059238;28;20035;-68
2021/11/07 00:22:27;;;;;;;11.75;5.90;;;8.50;99.90;;;;;;5058945;28;20056;-68
2021/11/07 00:27:05;;;;;;;5.95;5.35;;;9.10;99.90;;;;;;5059454;28;20068;-68
2021/11/07 00:29:36;;;;;;;6.20;5.43;;;8.50;99.90;;;;;;5059337;28;20021;-68
2021/11/07 00:35:03;;;;;;;5.57;4.80;;;9.70;99.90;;;;;;5059036;28;20029;-68
2021/11/07 00:37:37;;;;;;;10.38;6.03;;;9.20;99.90;;;;;;5057968;28;20036;-67
2021/11/07 00:50:33;;;;;;;5.53;4.22;;;9.30;99.90;;;;;;5059088;28;20032;-68
2021/11/07 00:53:24;;;;;;;6.35;5.75;;;8.90;99.90;;;;;;5058692;28;20487;-68
2021/11/07 00:56:34;;;;;;;11.32;6.50;;;8.60;99.90;;;;;;5058694;28;20029;-68
2021/11/07 00:58:43;;;;;;;9.05;6.45;;;9.20;99.90;;;;;;5052798;28;20039;-68
2021/11/07 01:03:35;;;;;;;8.98;6.97;;;8.80;99.90;;;;;;5058396;28;20028;-67
2021/11/07 01:06:01;;;;;;;8.70;6.70;;;8.50;99.90;;;;;;5058057;28;20029;-67
2021/11/07 01:08:27;;;;;;;8.73;7.45;;;8.70;99.90;;;;;;5065200;28;20103;-68
2021/11/07 01:10:53;;;;;;;;;;;8.20;99.90;;;;;;5078810;28;20060;-67
2021/11/07 01:13:19;;;;;;;6.85;6.15;;;8.30;99.90;;;;;;5078584;28;20027;-68
2021/11/07 01:15:45;;;;;;;;;;;7.80;99.90;;;;;;5084799;28;20062;-68
2021/11/07 01:18:11;;;;;;;10.73;7.40;;;8.20;99.90;;;;;;5058501;28;19950;-67
2021/11/07 01:20:37;;;;;;;8.18;6.85;;;9.30;99.90;;;;;;5058128;28;20025;-68
2021/11/07 01:25:36;;;;;;;10.50;6.68;;;8.50;99.90;;;;;;5058015;28;20387;-67
2021/11/07 01:28:04;;;;;;;17.98;8.55;;;7.70;99.90;;;;;;5058353;28;20025;-67
2021/11/07 01:30:32;;;;;;;7.68;6.57;;;8.30;99.90;;;;;;5057991;28;20099;-67
2021/11/07 01:33:05;;;;;;;10.98;6.60;;;8.20;99.90;;;;;;5058433;28;20052;-67
2021/11/07 01:38:27;;;;;;;9.55;6.60;;;8.10;99.90;;;;;;5047232;28;20048;-67
2021/11/07 01:41:19;;;;;;;7.47;6.70;;;9.00;99.90;;;;;;5057757;28;20477;-67
2021/11/07 01:43:46;;;;;;;8.57;6.03;;;8.10;99.90;;;;;;5057577;28;20024;-67
2021/11/07 01:46:27;;;;;;;9.82;6.13;;;8.50;99.90;;;;;;5057720;28;20033;-67
2021/11/07 01:51:22;;;;;;;8.05;5.15;;;8.90;99.90;;;;;;5056204;28;20025;-67
2021/11/07 01:53:49;;;;;;;9.98;6.45;;;8.90;99.90;;;;;;5057484;28;20021;-68
2021/11/07 01:56:15;;;;;;;10.13;6.53;;;9.50;99.90;;;;;;5056182;28;20048;-67
2021/11/07 01:58:43;;;;;;;11.75;5.93;;;8.90;99.90;;;;;;5064381;28;20028;-67
2021/11/07 02:01:10;;;;;;;6.97;6.03;;;8.40;99.90;;;;;;5077407;28;20017;-67
2021/11/07 02:03:37;;;;;;;10.95;6.18;;;9.00;99.90;;;;;;5077412;28;20016;-68
2021/11/07 02:06:04;;;;;;;6.40;5.80;;;9.00;99.90;;;;;;5075609;28;20066;-67
2021/11/07 02:08:30;;;;;;;8.75;5.10;;;9.60;99.90;;;;;;5077185;28;20012;-67
2021/11/07 02:10:57;;;;;;;7.32;4.95;;;8.80;99.90;;;;;;5077375;28;20052;-68
2021/11/07 02:13:25;;;;;;;7.78;4.80;;;9.60;99.90;;;;;;5077338;28;20074;-67
2021/11/07 02:15:51;;;;;;;8.90;5.07;;;10.00;99.90;;;;;;5081023;28;20058;-67
2021/11/07 02:18:18;;;;;;;8.23;4.13;;;9.30;99.90;;;;;;5057230;28;20052;-67
2021/11/07 02:20:46;;;;;;;6.07;4.72;;;10.40;99.90;;;;;;5057088;28;20496;-67
2021/11/07 02:23:16;;;;;;;9.45;4.88;;;9.40;99.90;;;;;;5056706;28;20021;-68
2021/11/07 02:25:44;;;;;;;5.65;4.35;;;10.10;99.90;;;;;;5056832;28;20056;-68
2021/11/07 02:28:11;;;;;;;4.75;4.35;;;9.60;99.90;;;;;;5056785;28;20131;-67
2021/11/07 02:30:39;;;;;;;17.77;5.50;;;9.60;99.90;;;;;;5056674;28;20029;-67
2021/11/07 02:33:05;;;;;;;7.68;4.93;;;9.10;99.90;;;;;;5056966;28;20480;-68
2021/11/07 02:35:33;;;;;;;10.02;4.97;;;9.70;99.90;;;;;;5056709;28;20088;-68
2021/11/07 02:38:00;;;;;;;5.60;4.75;;;10.10;99.90;;;;;;5056583;28;20047;-68
2021/11/07 02:40:26;;;;;;;6.90;5.00;;;9.30;99.90;;;;;;5056799;28;20025;-67
2021/11/07 02:42:52;;;;;;;6.47;5.57;;;9.70;99.90;;;;;;5056746;28;20032;-68
2021/11/07 02:45:20;;;;;;;6.38;5.40;;;10.30;99.90;;;;;;5056552;28;20544;-68
2021/11/07 02:47:48;;;;;;;11.55;5.93;;;9.80;99.90;;;;;;5056726;28;20096;-67
2021/11/07 02:50:16;;;;;;;7.47;5.63;;;9.90;99.90;;;;;;5056613;28;20484;-67
2021/11/07 02:52:43;;;;;;;5.75;5.18;;;9.40;99.90;;;;;;5056322;28;20021;-68
2021/11/07 02:55:09;;;;;;;12.75;5.57;;;9.80;99.90;;;;;;5056444;28;20401;-68
2021/11/07 02:57:36;;;;;;;8.50;5.65;;;9.20;99.90;;;;;;5056609;28;20421;-68
2021/11/07 03:00:05;;;;;;;8.07;5.05;;;9.60;99.90;;;;;;5054926;28;20497;-67
2021/11/07 03:02:31;;;;;;;6.63;4.05;;;9.60;99.90;;;;;;5056571;28;20484;-67
2021/11/07 03:04:57;;;;;;;5.93;4.57;;;9.90;99.90;;;;;;5056411;28;20066;-67
2021/11/07 03:07:24;;;;;;;8.40;5.28;;;10.40;99.90;;;;;;5056171;28;20053;-68
2021/11/07 03:09:51;;;;;;;6.40;5.50;;;9.40;99.90;;;;;;5074353;28;20020;-67
2021/11/07 03:12:17;;;;;;;7.97;5.15;;;9.70;99.90;;;;;;5076398;28;20384;-68
2021/11/07 03:14:53;;;;;;;8.50;5.05;;;10.90;99.90;;;;;;5075372;28;20053;-68
2021/11/07 03:17:26;;;;;;;9.10;4.80;;;10.00;99.90;;;;;;5068933;28;20082;-67
2021/11/07 03:19:53;;;;;;;4.55;3.75;;;10.00;99.90;;;;;;5076527;28;20544;-67
2021/11/07 03:22:22;;;;;;;8.27;4.97;;;10.00;99.90;;;;;;5075855;28;20028;-67
2021/11/07 03:24:54;;;;;;;4.72;3.63;;;10.10;99.90;;;;;;5076404;28;20339;-68
2021/11/07 03:27:34;;;;;;;9.40;4.05;;;10.20;99.90;;;;;;5076289;28;20028;-68
2021/11/07 03:30:06;;;;;;;5.63;3.95;;;10.30;99.90;;;;;;5076521;28;20056;-67
2021/11/07 03:32:36;;;;;;;5.68;3.95;;;10.40;99.90;;;;;;5076355;28;20035;-68
2021/11/07 03:35:04;;;;;;;8.77;3.50;;;9.90;99.90;;;;;;5076244;28;20024;-68
2021/11/07 03:37:36;;;;;;;4.78;3.63;;;9.80;99.90;;;;;;5075774;28;20024;-68
2021/11/07 03:40:07;;;;;;;9.07;3.38;;;10.00;99.90;;;;;;5076313;28;20029;-67
2021/11/07 03:42:33;;;;;;;6.68;3.63;;;10.50;99.90;;;;;;5076379;28;20039;-67
2021/11/07 03:44:59;;;;;;;4.35;3.03;;;10.60;99.90;;;;;;5076116;28;20029;-67
2021/11/07 03:47:25;;;;;;;3.78;3.47;;;10.50;99.90;;;;;;5076326;28;20017;-68
2021/11/07 03:49:53;;;;;;;3.30;3.10;;;9.90;99.90;;;;;;5075991;28;20021;-68
2021/11/07 03:52:19;;;;;;;3.35;3.03;;;10.50;99.90;;;;;;5074632;28;20107;-68
2021/11/07 03:54:45;;;;;;;3.70;3.00;;;10.20;99.90;;;;;;5076091;28;20067;-68
2021/11/07 03:57:12;;;;;;;5.55;3.17;;;10.50;99.90;;;;;;5076191;28;20024;-68
2021/11/07 03:59:40;;;;;;;6.53;3.70;;;10.60;99.90;;;;;;5076067;28;20020;-68
2021/11/07 04:02:06;;;;;;;3.30;3.00;;;10.30;99.90;;;;;;5076110;28;20027;-67
2021/11/07 04:04:32;;;;;;;7.10;3.15;;;10.60;99.90;;;;;;5075842;28;20385;-68
2021/11/07 04:06:58;;;;;;;4.93;4.05;;;10.70;99.90;;;;;;5075857;28;20024;-68
2021/11/07 04:09:24;;;;;;;9.13;4.72;;;10.40;99.90;;;;;;5075879;28;20024;-68
2021/11/07 04:11:50;;;;;;;5.35;4.85;;;10.40;99.90;;;;;;5077134;28;20047;-68
2021/11/07 04:14:16;;;;;;;5.95;5.15;;;10.50;99.90;;;;;;5079225;28;20436;-68
2021/11/07 04:16:43;;;;;;;6.88;5.10;;;10.30;99.90;;;;;;5077960;28;20029;-68
2021/11/07 04:19:10;;;;;;;11.38;5.28;;;10.00;99.90;;;;;;5059242;28;20029;-68
2021/11/07 04:21:38;;;;;;;9.02;5.88;;;11.00;99.90;;;;;;5059169;28;20021;-68
2021/11/07 04:24:04;;;;;;;8.10;5.28;;;10.80;99.90;;;;;;5059215;28;20069;-68
2021/11/07 04:26:31;;;;;;;6.55;5.47;;;10.40;99.90;;;;;;5059266;28;20021;-68
2021/11/07 04:28:57;;;;;;;7.30;5.05;;;10.60;99.90;;;;;;5059302;28;20430;-68
2021/11/07 04:31:23;;;;;;;9.40;5.75;;;10.40;99.90;;;;;;5059252;28;20102;-67
2021/11/07 04:33:49;;;;;;;9.48;5.32;;;10.80;99.90;;;;;;5059073;28;20033;-68
2021/11/07 04:36:16;;;;;;;6.55;4.53;;;10.40;99.90;;;;;;5058849;28;20009;-68
2021/11/07 04:38:41;;;;;;;6.65;4.35;;;10.40;99.90;;;;;;5058890;28;20021;-67
2021/11/07 04:41:16;;;;;;;6.55;4.85;;;10.50;99.90;;;;;;5059043;28;20024;-68
2021/11/07 04:43:42;;;;;;;5.55;4.18;;;10.00;99.90;;;;;;5058735;28;20020;-68
2021/11/07 04:46:08;;;;;;;5.93;3.78;;;10.70;99.90;;;;;;5058882;28;20025;-68
2021/11/07 04:48:34;;;;;;;7.68;3.90;;;10.30;99.90;;;;;;5058778;28;20063;-68
2021/11/07 04:51:00;;;;;;;6.60;4.20;;;10.40;99.90;;;;;;5058520;28;20025;-68
2021/11/07 04:53:25;;;;;;;4.63;4.03;;;10.80;99.90;;;;;;5058571;28;20025;-68
2021/11/07 04:55:51;;;;;;;5.05;3.45;;;10.90;99.90;;;;;;5058738;28;20032;-68
2021/11/07 04:58:18;;;;;;;5.15;3.40;;;11.10;99.90;;;;;;5058632;28;20029;-68
2021/11/07 05:00:45;;;;;;;7.65;4.72;;;10.50;99.90;;;;;;5058672;28;20029;-68
2021/11/07 05:03:11;;;;;;;6.30;3.67;;;10.80;99.90;;;;;;5058580;28;20033;-67
2021/11/07 05:05:38;;;;;;;4.88;3.90;;;10.80;99.90;;;;;;5058435;28;20029;-68
2021/11/07 05:08:05;;;;;;;6.60;3.67;;;10.40;99.90;;;;;;5061748;28;20013;-68
2021/11/07 05:10:32;;;;;;;7.05;3.50;;;11.50;99.90;;;;;;5078550;28;20075;-68
2021/11/07 05:12:58;;;;;;;4.82;3.10;;;10.50;99.90;;;;;;5078515;28;20020;-67
2021/11/07 05:15:24;;;;;;;6.43;3.25;;;10.70;99.90;;;;;;5082090;28;20397;-68
2021/11/07 05:17:50;;;;;;;5.43;3.58;;;11.00;99.90;;;;;;5064314;28;20389;-68
2021/11/07 05:20:16;;;;;;;5.57;2.85;;;10.50;99.90;;;;;;5058422;28;20021;-68
2021/11/07 05:22:42;;;;;;;6.78;3.40;;;11.50;99.90;;;;;;5057990;28;20025;-67
2021/11/07 05:25:12;;;;;;;4.05;3.33;;;11.20;99.90;;;;;;5058141;28;20021;-68
2021/11/07 05:27:38;;;;;;;4.60;3.28;;;11.20;99.90;;;;;;5058000;28;20052;-68
2021/11/07 05:30:07;;;;;;;9.05;3.30;;;11.20;99.90;;;;;;5058394;28;20025;-68
2021/11/07 05:32:33;;;;;;;6.28;3.92;;;10.90;99.90;;;;;;5057912;28;20024;-68
2021/11/07 05:34:59;;;;;;;5.75;4.40;;;11.60;99.90;;;;;;5058024;28;20040;-68
2021/11/07 05:37:26;;;;;;;5.97;3.70;;;11.00;99.90;;;;;;5057603;28;20021;-68
2021/11/07 05:39:53;;;;;;;5.38;3.13;;;10.10;99.90;;;;;;5057944;28;20104;-68
2021/11/07 05:42:20;;;;;;;6.88;4.55;;;11.40;99.90;;;;;;5057701;28;20037;-67
2021/11/07 05:44:46;;;;;;;4.95;3.97;;;11.10;99.90;;;;;;5057659;28;20025;-67
2021/11/07 05:47:12;;;;;;;7.13;4.68;;;10.90;99.90;;;;;;5057605;28;20056;-68
2021/11/07 05:49:37;;;;;;;8.13;3.83;;;11.10;99.90;;;;;;5057707;28;20044;-68
2021/11/07 05:52:04;;;;;;;6.22;4.32;;;11.00;99.90;;;;;;5057096;28;20544;-68
2021/11/07 05:54:31;;;;;;;4.70;4.20;;;11.10;99.90;;;;;;5057654;28;20031;-68
2021/11/07 05:57:00;;;;;;;7.30;3.88;;;11.20;99.90;;;;;;5057584;28;20024;-68
2021/11/07 05:59:26;;;;;;;6.57;4.32;;;10.30;99.90;;;;;;5057593;28;20566;-68
2021/11/07 06:01:52;;;;;;;5.78;3.45;;;11.40;99.90;;;;;;5057366;28;20061;-68
2021/11/07 06:04:18;;;;;;;6.03;3.38;;;10.40;99.90;;;;;;5057198;28;20035;-68
2021/11/07 06:06:44;;;;;;;3.70;3.10;;;10.90;99.90;;;;;;5056940;28;20025;-68
2021/11/07 06:09:10;;;;;;;4.95;2.97;;;10.60;99.90;;;;;;5069729;28;20096;-68
2021/11/07 06:11:36;;;;;;;5.80;3.58;;;11.00;99.90;;;;;;5077113;28;20111;-68
2021/11/07 06:14:03;;;;;;;7.57;3.92;;;10.90;99.90;;;;;;5077060;28;20057;-68
2021/11/07 06:16:28;;;;;;;6.90;3.60;;;11.30;99.90;;;;;;5078277;28;20032;-68
2021/11/07 06:18:55;;;;;;;7.50;3.17;;;11.30;99.90;;;;;;5055990;28;20029;-68
2021/11/07 06:21:22;;;;;;;5.88;2.83;;;11.30;99.90;;;;;;5056717;28;20017;-68
2021/11/07 06:23:49;;;;;;;5.45;3.15;;;11.40;99.90;;;;;;5056919;28;20530;-68
2021/11/07 06:26:16;;;;;;;3.55;3.00;;;11.60;99.90;;;;;;5057119;28;20032;-68
2021/11/07 06:28:42;;;;;;;4.97;2.70;;;11.90;99.90;;;;;;5056966;28;20105;-68
2021/11/07 06:31:09;;;;;;;6.68;3.75;;;11.10;99.90;;;;;;5063850;28;20059;-68
2021/11/07 06:33:36;;;;;;;3.55;2.90;;;11.50;99.90;;;;;;5076863;28;20078;-68
2021/11/07 06:36:02;;;;;;;6.35;3.78;;;11.20;99.90;;;;;;5076506;28;20029;-68
2021/11/07 06:38:28;;;;;;;4.30;3.15;;;11.60;99.90;;;;;;5076683;28;20099;-68
2021/11/07 06:40:54;;;;;;;8.73;3.53;;;11.20;99.90;;;;;;5077136;28;20078;-68
2021/11/07 06:43:20;;;;;;;6.15;3.42;;;11.70;99.90;;;;;;5076731;28;20060;-68
2021/11/07 06:45:47;;;;;;;5.07;2.85;;;11.60;99.90;;;;;;5076984;28;20029;-68
2021/11/07 06:48:13;;;;;;;9.60;3.10;;;11.40;99.90;;;;;;5076761;28;20537;-67
2021/11/07 06:50:39;;;;;;;4.03;2.92;;;11.80;99.90;;;;;;5076603;28;20025;-68
2021/11/07 06:53:05;;;;;;;6.00;3.50;;;11.40;99.90;;;;;;5076580;28;20020;-68
2021/11/07 06:55:31;;;;;;;4.32;3.05;;;11.80;99.90;;;;;;5076604;28;20032;-68
2021/11/07 06:57:57;;;;;;;9.48;3.47;;;11.20;99.90;;;;;;5076801;28;20080;-68
2021/11/07 07:00:26;;;;;;;6.07;3.40;;;11.80;99.90;;;;;;5076743;28;20032;-68
2021/11/07 07:02:52;;;;;;;5.90;4.00;;;12.00;99.90;;;;;;5076721;28;20028;-68
2021/11/07 07:05:19;;;;;;;6.03;3.85;;;12.00;99.90;;;;;;5076492;28;20326;-68
2021/11/07 07:07:50;;;;;;;3.85;3.10;;;11.70;99.90;;;;;;5076090;28;20150;-68
2021/11/07 07:10:24;;;;;;;4.68;3.53;;;11.70;99.90;;;;;;5076546;28;20028;-68
2021/11/07 07:15:37;;;;;;;4.15;3.17;;;10.80;99.90;;;;;;5080553;28;20167;-68
2021/11/07 07:23:48;;;;;;;5.10;2.95;;;11.90;99.90;;;;;;5056432;28;20056;-68
2021/11/07 07:31:58;;;;;;;3.28;2.97;;;12.50;99.90;;;;;;5056236;28;20443;-68
2021/11/07 07:34:25;;;;;;;4.03;3.17;;;11.50;99.90;;;;;;5055113;28;20025;-68
2021/11/07 07:36:52;;;;;;;3.25;3.00;;;12.30;99.90;;;;;;5055887;28;20017;-68
2021/11/07 07:39:19;;;;;;;3.20;2.25;;;11.60;99.90;;;;;;5063137;28;20024;-68
2021/11/07 07:41:45;;;;;;;4.32;2.53;;;12.70;99.90;;;;;;5076114;28;20024;-68
2021/11/07 07:44:11;;;;;;;3.70;2.13;;;12.00;99.90;;;;;;5076235;28;20028;-68
2021/11/07 07:46:41;;;;;;;3.63;2.20;;;12.70;99.90;;;;;;5076861;28;20021;-68
2021/11/07 07:49:08;;;;;;;4.57;2.10;;;12.50;99.90;;;;;;5080203;28;20020;-68
2021/11/07 07:51:35;;;;;;;2.47;1.88;;;12.80;99.90;;;;;;5078515;28;20033;-68
2021/11/07 07:54:04;;;;;;;2.92;2.58;;;12.60;99.90;;;;;;5080153;28;20071;-68
2021/11/07 07:56:30;;;;;;;3.58;2.05;;;12.70;99.90;;;;;;5079757;28;20028;-68
2021/11/07 07:58:57;;;;;;;4.63;1.98;;;12.80;99.90;;;;;;5080145;28;20021;-68
2021/11/07 08:01:23;;;;;;;1.50;1.40;;;12.80;99.90;;;;;;5080178;28;20024;-68
2021/11/07 08:03:50;;;;;;;2.83;1.60;;;12.80;99.90;;;;;;5074080;28;20399;-68
2021/11/07 08:06:16;;;;;;;2.08;1.98;;;13.10;99.90;;;;;;5078887;28;20074;-68
2021/11/07 08:08:42;;;;;;;1.70;1.60;;;12.60;99.90;;;;;;5079086;28;20058;-68
2021/11/07 08:11:08;;;;;;;1.88;1.27;;;13.00;99.90;;;;;;5078265;28;20396;-69
2021/11/07 08:13:33;;;;;;;3.05;1.63;;;12.50;99.90;;;;;;5079399;28;20056;-68
2021/11/07 08:16:00;;;;;;;2.30;2.20;;;13.30;99.90;;;;;;5084486;28;20059;-67
2021/11/07 08:18:26;;;;;;;1.48;1.40;;;12.70;99.90;;;;;;5059344;28;20086;-68
2021/11/07 08:20:52;;;;;;;2.83;1.95;;;13.00;99.90;;;;;;5064941;28;20107;-68
2021/11/07 08:23:23;;;;;;;1.67;1.55;;;13.30;99.90;;;;;;5070912;28;20610;-68
2021/11/07 08:25:50;;;;;;;2.92;2.00;;;13.30;99.90;;;;;;5058870;28;20040;-68
2021/11/07 08:28:20;;;;;;;1.58;1.48;;;13.00;99.90;;;;;;5059367;28;20104;-68
2021/11/07 08:30:51;;;;;;;1.80;1.70;;;13.30;99.90;;;;;;5059270;28;20036;-69
2021/11/07 08:33:17;;;;;;;1.50;1.40;;;13.50;99.90;;;;;;5067719;28;20023;-68
2021/11/07 08:35:45;;;;;;;1.65;1.55;;;13.50;99.90;;;;;;5078382;28;20107;-68
2021/11/07 08:38:15;;;;;;;1.67;1.58;;;13.40;99.90;;;;;;5078994;28;20448;-68
2021/11/07 08:40:44;;;;;;;1.50;1.40;;;13.00;99.90;;;;;;5078443;28;20029;-68
2021/11/07 09:00:15;;;;;;;1.90;1.80;;;13.80;99.90;;;;;;5079095;28;20047;-68
2021/11/07 09:03:44;;;;;;;3.03;1.20;;;13.90;99.90;;;;;;5078982;28;20107;-68
2021/11/07 09:05:48;;;;;;;1.20;1.10;;;14.30;99.90;;;;;;5069135;28;20059;-68
2021/11/07 09:08:16;;;;;;;1.27;1.20;;;14.40;99.90;;;;;;5078310;28;20513;-68
2021/11/07 09:10:44;;;;;;;1.15;1.05;;;14.80;99.90;;;;;;5078578;28;20025;-68
2021/11/07 09:13:12;;;;;;;1.13;1.00;;;14.70;99.90;;;;;;5078304;28;20012;-69
2021/11/07 09:15:42;;;;;;;3.92;2.10;;;14.80;99.90;;;;;;5083868;28;20044;-69
2021/11/07 09:18:08;;;;;;;1.00;0.93;;;14.30;99.90;;;;;;5059601;28;20029;-69
2021/11/07 09:20:43;;;;;;;1.08;1.08;;;15.10;99.90;;;;;;5058169;28;20063;-69
2021/11/07 09:23:48;;;;;;;1.00;0.90;;;15.50;99.90;;;;;;5058264;28;20048;-68
2021/11/07 09:26:51;;;;;;;0.93;0.93;;;;;;;;;;5055790;28;20056;-68
2021/11/07 09:34:44;;;;;;;2.17;1.00;;;16.50;99.90;;;;;;5058164;28;20056;-69
2021/11/07 09:36:42;;;;;;;1.83;1.30;;;16.90;99.90;;;;;;5050160;28;20501;-69
2021/11/07 09:44:22;;;;;;;0.93;0.82;;;;;;;;;;5057740;28;20054;-67
2021/11/07 09:46:52;;;;;;;0.70;0.70;;;;;;;;;;5057653;28;20451;-67
2021/11/07 09:49:25;;;;;;;0.70;0.70;;;;;;;;;;5057897;28;20020;-68
2021/11/07 09:52:02;;;;;;;0.70;0.70;;;;;;;;;;5057312;28;20067;-69
2021/11/07 09:54:29;;;;;;;0.80;0.80;;;;;;;;;;5057756;28;20033;-69
2021/11/07 09:56:56;;;;;;;0.70;0.70;;;17.80;99.90;;;;;;5057742;28;20091;-69
2021/11/07 09:59:25;;;;;;;0.80;0.80;;;17.70;99.90;;;;;;5057866;28;20109;-69
2021/11/07 10:01:57;;;;;;;0.75;0.75;;;17.90;99.90;;;;;;5057437;28;20029;-69
2021/11/07 10:04:23;;;;;;;0.75;0.70;;;18.00;99.90;;;;;;5056176;28;20029;-69
2021/11/07 10:06:52;;;;;;;1.17;0.75;;;17.50;99.90;;;;;;5056958;28;20469;-69
2021/11/07 10:09:36;;;;;;;0.63;0.63;;;17.40;99.90;;;;;;5070293;28;20016;-69
2021/11/07 10:12:13;;;;;;;1.33;0.60;;;17.00;99.90;;;;;;5077486;28;20384;-68
2021/11/07 10:14:54;;;;;;;1.95;0.70;;;16.90;99.90;;;;;;5076616;28;20512;-67
2021/11/07 10:17:45;;;;;;;2.50;0.90;;;16.50;99.90;;;;;;5070586;28;20033;-67
2021/11/07 10:20:33;;;;;;;0.63;0.63;;;16.40;99.90;;;;;;5077387;28;20028;-68
2021/11/07 10:23:11;;;;;;;0.70;0.70;;;16.30;99.90;;;;;;5077147;28;20066;-69
2021/11/07 10:25:41;;;;;;;0.63;0.63;;;16.10;99.90;;;;;;5077048;28;20085;-69
2021/11/07 10:28:25;;;;;;;0.75;0.75;;;15.90;99.90;;;;;;5077192;28;20023;-68
2021/11/07 10:31:08;;;;;;;1.17;0.80;;;16.00;99.90;;;;;;5076972;28;20388;-69
2021/11/07 10:52:39;;;;;;;0.60;0.60;;;17.80;99.90;;;;;;5066849;28;20024;-67
2021/11/07 10:55:23;;;;;;;0.70;0.70;;;18.40;99.90;;;;;;5072168;28;20060;-67
2021/11/07 10:57:54;;;;;;;1.42;0.70;;;18.80;99.90;;;;;;5056417;28;20021;-67
2021/11/07 11:00:30;;;;;;;2.92;0.60;;;18.60;99.90;;;;;;5056602;28;20025;-67
2021/11/07 11:03:10;;;;;;;0.60;0.60;;;19.00;99.90;;;;;;5056041;28;20453;-67
2021/11/07 11:05:43;;;;;;;2.13;0.70;;;19.30;99.90;;;;;;5065210;28;20037;-67
2021/11/07 11:08:23;;;;;;;0.95;0.70;;;19.50;99.90;;;;;;5076124;28;20020;-68
2021/11/07 11:11:00;;;;;;;1.48;0.70;;;20.20;99.90;;;;;;5075874;28;20040;-67
2021/11/07 11:16:34;;;;;;;1.80;0.90;;;20.70;99.90;;;;;;5079943;28;20044;-67
2021/11/07 11:37:39;;;;;;;3.63;1.20;;;17.40;99.90;;;;;;5051710;28;20515;-67
2021/11/07 11:43:11;;;;;;;3.67;1.63;;;17.60;99.90;;;;;;5062076;28;20105;-67
2021/11/07 11:45:40;;;;;;;6.72;1.50;;;18.40;99.90;;;;;;5073268;28;20033;-67
2021/11/07 11:51:31;;;;;;;8.13;1.65;;;19.90;99.90;;;;;;5059079;28;20036;-68
2021/11/07 11:54:46;;;;;;;6.50;1.23;;;20.00;99.90;;;;;;5060038;28;20393;-68
2021/11/07 11:57:28;;;;;;;5.72;1.98;;;20.50;99.90;;;;;;5067384;28;20086;-68
2021/11/07 12:00:21;;;;;;;4.15;1.60;;;20.50;99.90;;;;;;5080092;28;20052;-68
2021/11/07 12:05:47;;;;;;;5.22;1.60;;;19.50;99.90;;;;;;5079474;28;20067;-68
2021/11/07 12:11:00;;;;;;;3.55;1.30;;;19.20;99.90;;;;;;5067784;28;20022;-68
2021/11/07 12:13:42;;;;;;;5.53;2.25;;;19.70;99.90;;;;;;5059932;28;20496;-68
2021/11/07 12:16:14;;;;;;;7.60;1.63;;;20.50;99.90;;;;;;5076451;28;20040;-68
2021/11/07 12:19:02;;;;;;;6.53;1.63;;;21.00;99.90;;;;;;5059620;28;20567;-68
2021/11/07 12:22:00;;;;;;;5.45;1.60;;;20.40;99.90;;;;;;5059233;28;20021;-70
2021/11/07 12:24:46;;;;;;;7.72;1.60;;;20.40;99.90;;;;;;5059342;28;20031;-70
2021/11/07 12:27:25;;;;;;;7.93;2.20;;;19.60;99.90;;;;;;5059249;28;20017;-70
2021/11/07 12:30:15;;;;;;;7.97;2.38;;;18.60;99.90;;;;;;5059494;28;20040;-70
2021/11/07 12:32:44;;;;;;;8.18;2.08;;;18.00;99.90;;;;;;5057045;28;20040;-70
2021/11/07 12:35:15;;;;;;;11.52;2.55;;;17.40;99.90;;;;;;5059184;28;20496;-70
2021/11/07 12:40:57;;;;;;;8.75;2.78;;;17.20;99.90;;;;;;5059173;28;20051;-70
2021/11/07 12:43:25;;;;;;;6.28;1.95;;;18.00;99.90;;;;;;5057822;28;20032;-70
2021/11/07 12:45:58;;;;;;;7.30;2.03;;;18.70;99.90;;;;;;5058932;28;20029;-70
2021/11/07 12:48:47;;;;;;;6.70;1.85;;;19.40;99.90;;;;;;5058985;28;20032;-69
2021/11/07 12:51:18;;;;;;;11.02;1.90;;;20.20;99.90;;;;;;5067576;28;20028;-67
2021/11/07 12:54:03;;;;;;;7.68;2.42;;;20.20;99.90;;;;;;5063231;28;20041;-69
2021/11/07 12:56:41;;;;;;;7.47;2.35;;;20.40;99.90;;;;;;5063159;28;20032;-69
2021/11/07 12:59:15;;;;;;;7.28;2.50;;;20.40;99.90;;;;;;5078263;28;20445;-69
2021/11/07 13:01:54;;;;;;;7.57;2.47;;;20.40;99.90;;;;;;5078509;28;20501;-70
2021/11/07 13:04:22;;;;;;;6.32;2.13;;;19.70;99.90;;;;;;5078246;28;20024;-69
2021/11/07 13:06:54;;;;;;;10.35;2.30;;;18.80;99.90;;;;;;5077999;28;20020;-69
2021/11/07 13:09:24;;;;;;;5.22;1.88;;;17.80;99.90;;;;;;5078310;28;20093;-69
2021/11/07 13:11:54;;;;;;;9.85;2.75;;;17.20;99.90;;;;;;5078096;28;20029;-67
2021/11/07 13:14:34;;;;;;;11.10;2.50;;;17.50;99.90;;;;;;5078128;28;20040;-67
2021/11/07 13:17:57;;;;;;;9.18;2.30;;;17.70;99.90;;;;;;5075354;28;20021;-67
2021/11/07 13:31:28;;;;;;;7.70;2.63;;;18.60;99.90;;;;;;5036257;28;20022;-67
2021/11/07 13:34:07;;;;;;;7.95;2.72;;;18.70;99.90;;;;;;5047103;28;20043;-67
2021/11/07 13:36:42;;;;;;;10.85;2.70;;;18.90;99.90;;;;;;5057660;28;20092;-67
2021/11/07 13:39:09;;;;;;;11.50;2.70;;;18.60;99.90;;;;;;5058007;28;20029;-67
2021/11/07 13:41:36;;;;;;;9.80;2.92;;;18.20;99.90;;;;;;5058244;28;20074;-67
2021/11/07 13:44:09;;;;;;;13.65;2.80;;;17.70;99.90;;;;;;5056684;28;20420;-67
2021/11/07 13:46:36;;;;;;;8.10;2.40;;;17.20;99.90;;;;;;5076316;28;20028;-67
2021/11/07 13:49:06;;;;;;;11.20;2.95;;;16.50;99.90;;;;;;5072473;28;20040;-67
2021/11/07 13:51:52;;;;;;;17.20;3.92;;;16.20;99.90;;;;;;5075999;28;20035;-67
2021/11/07 13:54:18;;;;;;;11.05;2.30;;;16.20;99.90;;;;;;5057568;28;20389;-68
2021/11/07 13:56:46;;;;;;;11.27;2.67;;;16.10;99.90;;;;;;5059137;28;20051;-68
2021/11/07 13:59:30;;;;;;;12.10;2.75;;;16.30;99.90;;;;;;5077630;28;20024;-69
2021/11/07 14:01:56;;;;;;;12.13;3.63;;;16.30;99.90;;;;;;5077554;28;20365;-69
2021/11/07 14:04:22;;;;;;;13.32;2.67;;;16.70;99.90;;;;;;5076983;28;20020;-69
2021/11/07 14:06:48;;;;;;;12.75;2.78;;;16.60;99.90;;;;;;5075716;28;20021;-69
2021/11/07 14:09:17;;;;;;;12.05;2.95;;;16.40;99.90;;;;;;5077360;28;20048;-69
2021/11/07 14:11:43;;;;;;;8.32;3.67;;;16.00;99.90;;;;;;5077022;28;20032;-69
2021/11/07 14:14:12;;;;;;;11.50;2.78;;;15.90;99.90;;;;;;5077120;28;20052;-67
2021/11/07 14:16:59;;;;;;;16.08;4.00;;;15.60;99.90;;;;;;5076955;28;20017;-67
2021/11/07 14:19:25;;;;;;;12.40;3.45;;;15.50;99.90;;;;;;5059537;28;20503;-67
2021/11/07 14:21:52;;;;;;;12.10;2.55;;;15.90;99.90;;;;;;5076402;28;20020;-68
2021/11/07 14:24:26;;;;;;;12.80;2.97;;;16.00;99.90;;;;;;5063032;28;20147;-69
2021/11/07 14:27:08;;;;;;;10.40;3.05;;;15.70;99.90;;;;;;5076815;28;20016;-69
2021/11/07 14:29:38;;;;;;;9.43;2.72;;;15.90;99.90;;;;;;5076871;28;20431;-69
2021/11/07 14:32:17;;;;;;;13.77;3.40;;;16.10;99.90;;;;;;5076136;28;20433;-69
2021/11/07 14:51:13;;;;;;;10.65;2.90;;;14.70;99.90;;;;;;5056686;28;20378;-69
2021/11/07 14:53:54;;;;;;;5.65;2.20;;;14.60;99.90;;;;;;5056383;28;20049;-69
2021/11/07 15:05:11;;;;;;;10.90;3.17;;;14.10;99.90;;;;;;5066616;28;20502;-69
2021/11/07 15:07:53;;;;;;;8.82;2.50;;;14.10;99.90;;;;;;5076447;28;20021;-69
2021/11/07 15:13:19;;;;;;;15.30;2.95;;;14.50;99.90;;;;;;5076467;28;20561;-69
2021/11/07 15:18:45;;;;;;;8.57;2.80;;;14.50;99.90;;;;;;5063687;28;20056;-69
2021/11/07 15:21:30;;;;;;;13.57;2.92;;;14.50;99.90;;;;;;5075623;28;20411;-69
2021/11/07 15:24:14;;;;;;;12.27;2.60;;;14.80;99.90;;;;;;5075325;28;20074;-69
2021/11/07 15:26:46;;;;;;;11.02;2.80;;;14.70;99.90;;;;;;5075934;28;20067;-69
2021/11/07 15:29:16;;;;;;;8.95;2.25;;;14.10;99.90;;;;;;5076271;28;20391;-69
2021/11/07 15:31:43;;;;;;;14.25;2.85;;;13.90;99.90;;;;;;5076375;28;20028;-69
2021/11/07 15:34:13;;;;;;;9.88;3.10;;;13.90;99.90;;;;;;5075699;28;20035;-69
2021/11/07 15:36:45;;;;;;;13.45;4.60;;;13.50;99.90;;;;;;5075888;28;20028;-69
2021/11/07 15:39:21;;;;;;;8.95;2.72;;;13.70;99.90;;;;;;5076221;28;20032;-69
2021/11/07 15:42:04;;;;;;;12.73;2.90;;;13.40;99.90;;;;;;5075721;28;20028;-68
2021/11/07 15:45:02;;;;;;;13.98;2.85;;;13.10;99.90;;;;;;5074511;28;20024;-68
2021/11/07 15:47:39;;;;;;;7.45;2.90;;;13.40;99.90;;;;;;5068162;28;20029;-68
2021/11/07 16:06:39;;;;;;;14.63;3.35;;;12.70;99.90;;;;;;5055569;28;20028;-68
2021/11/07 16:18:59;;;;;;;15.98;3.65;;;12.40;99.90;;;;;;5059096;28;20021;-67
2021/11/07 16:21:26;;;;;;;11.00;4.10;;;11.80;99.90;;;;;;5059193;28;20024;-67
2021/11/07 16:23:52;;;;;;;15.23;3.55;;;12.10;99.90;;;;;;5059640;28;20018;-67
2021/11/07 16:26:19;;;;;;;16.80;4.88;;;11.70;99.90;;;;;;5058607;28;20021;-67